Terminal Aerodrome Forecast
Issued by NWS

Home | Current Version | Previous Version | Text Only | Print | Product List | Glossary On
Versions: 1 2 3 4 5 6 7 8 9 10 11
554
FTUS45 KFGZ 241512 AAA
TAFGCN
TAF AMD
KGCN 241512Z 2415/2512 22014G21KT P6SM BKN200
     FM241800 23020G31KT P6SM BKN110 BKN200
     FM250300 23010KT P6SM SCT040 BKN110=

USA.gov is the U.S. government's official web portal to all federal, state and local government web resources and services.